sensor_id;sensor_type;location;lat;lon;timestamp;pressure;altitude;pressure_sealevel;temperature;humidity
141;BME280;65;48.778;9.160;2022-09-16T00:00:35;97983.19;;;14.77;85.37
141;BME280;65;48.778;9.160;2022-09-16T00:03:00;97976.19;;;14.76;86.29
141;BME280;65;48.778;9.160;2022-09-16T00:05:26;97973.00;;;14.82;86.16
141;BME280;65;48.778;9.160;2022-09-16T00:07:52;97980.28;;;14.80;86.66
141;BME280;65;48.778;9.160;2022-09-16T00:10:18;97977.34;;;14.83;86.12
141;BME280;65;48.778;9.160;2022-09-16T00:12:44;97970.22;;;14.84;84.55
141;BME280;65;48.778;9.160;2022-09-16T00:15:12;97966.59;;;14.85;85.64
141;BME280;65;48.778;9.160;2022-09-16T00:17:37;97969.38;;;14.83;85.54
141;BME280;65;48.778;9.160;2022-09-16T00:20:04;97975.41;;;14.85;85.77
141;BME280;65;48.778;9.160;2022-09-16T00:22:30;97970.59;;;14.79;85.36
141;BME280;65;48.778;9.160;2022-09-16T00:24:55;97971.13;;;14.73;85.19
141;BME280;65;48.778;9.160;2022-09-16T00:27:21;97978.38;;;14.71;86.40
141;BME280;65;48.778;9.160;2022-09-16T00:29:46;97979.16;;;14.62;86.91
141;BME280;65;48.778;9.160;2022-09-16T00:32:11;97976.28;;;14.54;87.15
141;BME280;65;48.778;9.160;2022-09-16T00:34:37;97976.53;;;14.51;88.17
141;BME280;65;48.778;9.160;2022-09-16T00:37:03;97969.66;;;14.48;87.18
141;BME280;65;48.778;9.160;2022-09-16T00:39:31;97977.91;;;14.45;88.66
141;BME280;65;48.778;9.160;2022-09-16T00:41:56;97977.78;;;14.47;88.11
141;BME280;65;48.778;9.160;2022-09-16T00:45:00;97984.06;;;14.46;88.37
141;BME280;65;48.778;9.160;2022-09-16T00:47:34;97979.19;;;14.40;88.35
141;BME280;65;48.778;9.160;2022-09-16T00:50:22;97984.78;;;14.48;87.20
141;BME280;65;48.778;9.160;2022-09-16T00:52:50;97980.56;;;14.45;87.94
141;BME280;65;48.778;9.160;2022-09-16T00:55:20;97981.84;;;14.40;89.40
141;BME280;65;48.778;9.160;2022-09-16T00:57:47;97985.72;;;14.36;89.77
141;BME280;65;48.778;9.160;2022-09-16T01:00:13;97986.09;;;14.31;90.17
141;BME280;65;48.778;9.160;2022-09-16T01:02:41;97988.03;;;14.29;90.32
141;BME280;65;48.778;9.160;2022-09-16T01:05:14;97989.72;;;14.30;90.63
141;BME280;65;48.778;9.160;2022-09-16T01:07:48;97979.94;;;14.31;89.20
141;BME280;65;48.778;9.160;2022-09-16T01:10:20;97984.16;;;14.33;88.95
141;BME280;65;48.778;9.160;2022-09-16T01:12:49;97985.47;;;14.39;89.19
141;BME280;65;48.778;9.160;2022-09-16T01:15:18;97985.22;;;14.42;88.44
141;BME280;65;48.778;9.160;2022-09-16T01:17:55;97980.31;;;14.48;88.33
141;BME280;65;48.778;9.160;2022-09-16T01:26:38;97982.97;;;14.48;89.24
141;BME280;65;48.778;9.160;2022-09-16T01:32:10;97989.47;;;14.44;89.69
141;BME280;65;48.778;9.160;2022-09-16T01:35:07;97984.50;;;14.40;90.50
141;BME280;65;48.778;9.160;2022-09-16T01:38:06;97975.22;;;14.34;89.70
141;BME280;65;48.778;9.160;2022-09-16T01:41:22;97985.50;;;14.28;90.00
141;BME280;65;48.778;9.160;2022-09-16T01:46:44;97991.13;;;14.02;90.43
141;BME280;65;48.778;9.160;2022-09-16T01:57:45;97977.34;;;13.75;91.93
141;BME280;65;48.778;9.160;2022-09-16T02:00:09;97983.75;;;13.72;91.96
141;BME280;65;48.778;9.160;2022-09-16T02:03:04;97990.16;;;13.70;92.40
141;BME280;65;48.778;9.160;2022-09-16T02:05:54;97983.63;;;13.74;92.59
141;BME280;65;48.778;9.160;2022-09-16T02:08:26;97988.47;;;13.80;91.42
141;BME280;65;48.778;9.160;2022-09-16T02:10:58;97988.59;;;13.78;91.38
141;BME280;65;48.778;9.160;2022-09-16T02:13:29;97994.50;;;13.82;89.66
141;BME280;65;48.778;9.160;2022-09-16T02:16:03;97984.47;;;13.74;87.31
141;BME280;65;48.778;9.160;2022-09-16T02:18:34;97981.34;;;13.80;86.98
141;BME280;65;48.778;9.160;2022-09-16T02:21:03;97980.25;;;13.83;87.64
141;BME280;65;48.778;9.160;2022-09-16T02:23:34;97966.00;;;13.84;86.87
141;BME280;65;48.778;9.160;2022-09-16T02:26:04;97974.81;;;13.84;87.70
141;BME280;65;48.778;9.160;2022-09-16T02:28:37;97977.13;;;13.78;87.24
141;BME280;65;48.778;9.160;2022-09-16T02:31:08;97973.25;;;13.71;87.03
141;BME280;65;48.778;9.160;2022-09-16T02:36:09;97987.38;;;13.71;86.65
141;BME280;65;48.778;9.160;2022-09-16T02:38:44;97983.41;;;13.66;84.99
141;BME280;65;48.778;9.160;2022-09-16T02:41:11;97990.78;;;13.62;86.36
141;BME280;65;48.778;9.160;2022-09-16T02:43:42;97990.28;;;13.57;87.18
141;BME280;65;48.778;9.160;2022-09-16T02:46:23;97991.75;;;13.50;87.75
141;BME280;65;48.778;9.160;2022-09-16T02:54:23;97988.25;;;13.49;85.34
141;BME280;65;48.778;9.160;2022-09-16T02:56:49;97978.09;;;13.43;86.28
141;BME280;65;48.778;9.160;2022-09-16T02:59:16;97983.28;;;13.34;87.15
141;BME280;65;48.778;9.160;2022-09-16T03:01:44;97990.53;;;13.32;88.42
141;BME280;65;48.778;9.160;2022-09-16T03:04:12;97984.13;;;13.34;86.02
141;BME280;65;48.778;9.160;2022-09-16T03:06:38;97980.03;;;13.30;86.65
141;BME280;65;48.778;9.160;2022-09-16T03:09:07;97974.19;;;13.25;87.35
141;BME280;65;48.778;9.160;2022-09-16T03:27:49;97973.63;;;13.44;84.50
141;BME280;65;48.778;9.160;2022-09-16T03:30:15;97970.97;;;13.44;85.30
141;BME280;65;48.778;9.160;2022-09-16T03:37:44;97971.94;;;13.43;85.39
141;BME280;65;48.778;9.160;2022-09-16T03:40:13;97969.78;;;13.48;83.88
141;BME280;65;48.778;9.160;2022-09-16T03:42:40;97977.72;;;13.48;84.01
141;BME280;65;48.778;9.160;2022-09-16T03:45:08;97965.06;;;13.51;84.51
141;BME280;65;48.778;9.160;2022-09-16T03:47:35;97958.78;;;13.52;83.64
141;BME280;65;48.778;9.160;2022-09-16T03:50:00;97964.94;;;13.53;83.00
141;BME280;65;48.778;9.160;2022-09-16T03:52:27;97969.03;;;13.57;83.94
141;BME280;65;48.778;9.160;2022-09-16T03:54:53;97955.03;;;13.55;82.76
141;BME280;65;48.778;9.160;2022-09-16T03:57:18;97958.53;;;13.55;81.21
141;BME280;65;48.778;9.160;2022-09-16T03:59:44;97964.34;;;13.60;81.97
141;BME280;65;48.778;9.160;2022-09-16T04:02:09;97971.09;;;13.65;82.19
141;BME280;65;48.778;9.160;2022-09-16T04:04:34;97967.22;;;13.69;81.32
141;BME280;65;48.778;9.160;2022-09-16T04:07:00;97955.63;;;13.70;80.71
141;BME280;65;48.778;9.160;2022-09-16T04:09:25;97961.91;;;13.69;81.17
141;BME280;65;48.778;9.160;2022-09-16T04:11:50;97964.69;;;13.67;80.66
141;BME280;65;48.778;9.160;2022-09-16T04:14:16;97960.09;;;13.69;80.05
141;BME280;65;48.778;9.160;2022-09-16T04:16:41;97959.25;;;13.69;80.57
141;BME280;65;48.778;9.160;2022-09-16T04:19:07;97959.50;;;13.66;81.84
141;BME280;65;48.778;9.160;2022-09-16T04:21:34;97951.28;;;13.69;82.31
141;BME280;65;48.778;9.160;2022-09-16T04:24:00;97947.06;;;13.66;80.69
141;BME280;65;48.778;9.160;2022-09-16T04:26:25;97944.41;;;13.66;81.33
141;BME280;65;48.778;9.160;2022-09-16T04:28:52;97951.53;;;13.66;82.32
141;BME280;65;48.778;9.160;2022-09-16T04:31:18;97942.72;;;13.65;81.03
141;BME280;65;48.778;9.160;2022-09-16T04:33:44;97942.59;;;13.67;82.13
141;BME280;65;48.778;9.160;2022-09-16T04:36:15;97939.22;;;13.65;82.55
141;BME280;65;48.778;9.160;2022-09-16T04:38:42;97932.94;;;13.66;81.83
141;BME280;65;48.778;9.160;2022-09-16T04:41:11;97938.25;;;13.66;82.26
141;BME280;65;48.778;9.160;2022-09-16T04:43:37;97942.84;;;13.64;82.14
141;BME280;65;48.778;9.160;2022-09-16T04:46:04;97947.56;;;13.60;84.08
141;BME280;65;48.778;9.160;2022-09-16T04:48:30;97939.72;;;13.58;85.03
141;BME280;65;48.778;9.160;2022-09-16T04:51:04;97939.72;;;13.58;86.23
141;BME280;65;48.778;9.160;2022-09-16T04:53:30;97939.47;;;13.50;88.12
141;BME280;65;48.778;9.160;2022-09-16T04:56:27;97944.44;;;13.44;89.09
141;BME280;65;48.778;9.160;2022-09-16T04:58:55;97950.47;;;13.35;90.08
141;BME280;65;48.778;9.160;2022-09-16T05:01:36;97956.84;;;13.32;90.05
141;BME280;65;48.778;9.160;2022-09-16T05:04:04;97947.22;;;13.31;89.20
141;BME280;65;48.778;9.160;2022-09-16T05:06:32;97950.09;;;13.39;91.51
141;BME280;65;48.778;9.160;2022-09-16T05:08:59;97954.56;;;13.39;89.39
141;BME280;65;48.778;9.160;2022-09-16T05:11:28;97957.59;;;13.45;88.48
141;BME280;65;48.778;9.160;2022-09-16T05:13:57;97963.63;;;13.47;89.69
141;BME280;65;48.778;9.160;2022-09-16T05:16:23;97963.63;;;13.47;89.49
141;BME280;65;48.778;9.160;2022-09-16T05:18:49;97967.34;;;13.34;91.95
141;BME280;65;48.778;9.160;2022-09-16T05:21:17;97956.94;;;13.19;95.69
141;BME280;65;48.778;9.160;2022-09-16T05:23:44;97960.63;;;13.06;98.33
141;BME280;65;48.778;9.160;2022-09-16T05:26:12;97956.97;;;12.84;100.00
141;BME280;65;48.778;9.160;2022-09-16T05:28:39;97955.81;;;12.64;100.00
141;BME280;65;48.778;9.160;2022-09-16T05:31:19;97958.31;;;12.55;100.00
141;BME280;65;48.778;9.160;2022-09-16T05:33:52;97962.03;;;12.52;100.00
141;BME280;65;48.778;9.160;2022-09-16T05:36:18;97963.34;;;12.47;100.00
141;BME280;65;48.778;9.160;2022-09-16T05:38:43;97958.75;;;12.49;100.00
141;BME280;65;48.778;9.160;2022-09-16T05:41:09;97954.41;;;12.48;100.00
141;BME280;65;48.778;9.160;2022-09-16T05:43:36;97958.16;;;12.45;100.00
141;BME280;65;48.778;9.160;2022-09-16T05:46:02;97955.84;;;12.41;100.00
141;BME280;65;48.778;9.160;2022-09-16T05:48:28;97963.69;;;12.42;100.00
141;BME280;65;48.778;9.160;2022-09-16T05:50:56;97963.34;;;12.47;100.00
141;BME280;65;48.778;9.160;2022-09-16T05:53:22;97966.47;;;12.52;100.00
141;BME280;65;48.778;9.160;2022-09-16T05:58:24;97967.00;;;12.57;100.00
141;BME280;65;48.778;9.160;2022-09-16T06:00:50;97969.88;;;12.54;100.00
141;BME280;65;48.778;9.160;2022-09-16T06:03:16;97971.75;;;12.41;100.00
141;BME280;65;48.778;9.160;2022-09-16T06:05:41;97974.41;;;12.41;100.00
141;BME280;65;48.778;9.160;2022-09-16T06:08:06;97974.28;;;12.42;100.00
141;BME280;65;48.778;9.160;2022-09-16T06:10:39;97974.28;;;12.42;100.00
141;BME280;65;48.778;9.160;2022-09-16T06:13:05;97970.78;;;12.42;100.00
141;BME280;65;48.778;9.160;2022-09-16T06:15:30;97972.34;;;12.44;100.00
141;BME280;65;48.778;9.160;2022-09-16T06:17:56;97973.94;;;12.47;100.00
141;BME280;65;48.778;9.160;2022-09-16T06:20:22;97973.81;;;12.48;100.00
141;BME280;65;48.778;9.160;2022-09-16T06:22:48;97975.13;;;12.43;100.00
141;BME280;65;48.778;9.160;2022-09-16T06:25:13;97982.00;;;12.45;100.00
141;BME280;65;48.778;9.160;2022-09-16T06:27:38;97986.22;;;12.48;100.00
141;BME280;65;48.778;9.160;2022-09-16T06:30:06;97979.25;;;12.47;100.00
141;BME280;65;48.778;9.160;2022-09-16T06:32:32;97983.69;;;12.46;100.00
141;BME280;65;48.778;9.160;2022-09-16T06:34:58;97977.53;;;12.46;100.00
141;BME280;65;48.778;9.160;2022-09-16T06:37:23;97979.13;;;12.48;100.00
141;BME280;65;48.778;9.160;2022-09-16T06:39:50;97978.28;;;12.48;100.00
141;BME280;65;48.778;9.160;2022-09-16T06:42:15;97980.81;;;12.49;100.00
141;BME280;65;48.778;9.160;2022-09-16T06:44:41;97979.75;;;12.52;100.00
141;BME280;65;48.778;9.160;2022-09-16T06:47:06;97980.59;;;12.52;100.00
141;BME280;65;48.778;9.160;2022-09-16T06:49:31;97989.94;;;12.45;100.00
141;BME280;65;48.778;9.160;2022-09-16T06:51:57;97992.25;;;12.50;100.00
141;BME280;65;48.778;9.160;2022-09-16T06:54:22;97990.56;;;12.49;100.00
141;BME280;65;48.778;9.160;2022-09-16T06:56:48;97990.22;;;12.53;100.00
141;BME280;65;48.778;9.160;2022-09-16T06:59:13;97988.19;;;12.57;100.00
141;BME280;65;48.778;9.160;2022-09-16T07:01:39;97980.97;;;12.59;100.00
141;BME280;65;48.778;9.160;2022-09-16T07:04:07;97980.97;;;12.59;100.00
141;BME280;65;48.778;9.160;2022-09-16T07:06:35;97990.28;;;12.64;100.00
141;BME280;65;48.778;9.160;2022-09-16T07:09:01;97995.56;;;12.64;100.00
141;BME280;65;48.778;9.160;2022-09-16T07:11:27;98002.91;;;12.61;100.00
141;BME280;65;48.778;9.160;2022-09-16T07:13:53;97998.78;;;12.57;100.00
141;BME280;65;48.778;9.160;2022-09-16T07:16:22;97999.88;;;12.54;100.00
141;BME280;65;48.778;9.160;2022-09-16T07:18:54;97997.22;;;12.54;100.00
141;BME280;65;48.778;9.160;2022-09-16T07:21:23;98005.53;;;12.50;100.00
141;BME280;65;48.778;9.160;2022-09-16T07:23:50;98006.25;;;12.52;100.00
141;BME280;65;48.778;9.160;2022-09-16T07:26:20;98017.06;;;12.49;100.00
141;BME280;65;48.778;9.160;2022-09-16T07:28:49;98017.75;;;12.40;100.00
141;BME280;65;48.778;9.160;2022-09-16T07:31:18;98018.59;;;12.40;100.00
141;BME280;65;48.778;9.160;2022-09-16T07:33:46;98007.38;;;12.37;100.00
141;BME280;65;48.778;9.160;2022-09-16T07:36:18;98005.47;;;12.39;100.00
141;BME280;65;48.778;9.160;2022-09-16T07:38:44;98005.28;;;12.53;100.00
141;BME280;65;48.778;9.160;2022-09-16T07:41:12;98006.56;;;12.71;100.00
141;BME280;65;48.778;9.160;2022-09-16T07:43:39;98013.59;;;12.72;100.00
141;BME280;65;48.778;9.160;2022-09-16T07:46:05;98016.16;;;12.61;100.00
141;BME280;65;48.778;9.160;2022-09-16T07:48:32;98019.50;;;12.52;100.00
141;BME280;65;48.778;9.160;2022-09-16T07:50:59;98009.25;;;12.47;100.00
141;BME280;65;48.778;9.160;2022-09-16T07:53:27;98010.47;;;12.54;100.00
141;BME280;65;48.778;9.160;2022-09-16T07:56:00;98015.16;;;12.51;100.00
141;BME280;65;48.778;9.160;2022-09-16T07:58:25;98016.50;;;12.32;100.00
141;BME280;65;48.778;9.160;2022-09-16T08:00:51;98031.47;;;12.33;100.00
141;BME280;65;48.778;9.160;2022-09-16T08:03:17;98035.81;;;12.34;100.00
141;BME280;65;48.778;9.160;2022-09-16T08:05:42;98029.38;;;12.26;100.00
141;BME280;65;48.778;9.160;2022-09-16T08:08:08;98023.50;;;12.33;100.00
141;BME280;65;48.778;9.160;2022-09-16T08:10:33;98021.47;;;12.61;100.00
141;BME280;65;48.778;9.160;2022-09-16T08:13:01;98008.47;;;12.93;100.00
141;BME280;65;48.778;9.160;2022-09-16T08:15:26;98010.66;;;12.99;100.00
141;BME280;65;48.778;9.160;2022-09-16T08:17:52;98021.19;;;13.12;100.00
141;BME280;65;48.778;9.160;2022-09-16T08:20:17;98031.56;;;13.15;100.00
141;BME280;65;48.778;9.160;2022-09-16T08:22:43;98025.28;;;13.05;100.00
141;BME280;65;48.778;9.160;2022-09-16T08:25:08;98034.84;;;13.18;100.00
141;BME280;65;48.778;9.160;2022-09-16T08:27:34;98029.56;;;13.18;100.00
141;BME280;65;48.778;9.160;2022-09-16T08:30:00;98027.22;;;13.14;100.00
141;BME280;65;48.778;9.160;2022-09-16T08:32:25;98029.16;;;13.12;100.00
141;BME280;65;48.778;9.160;2022-09-16T08:34:51;98034.19;;;13.04;100.00
141;BME280;65;48.778;9.160;2022-09-16T08:37:18;98030.72;;;13.14;100.00
141;BME280;65;48.778;9.160;2022-09-16T08:39:43;98039.75;;;13.12;100.00
141;BME280;65;48.778;9.160;2022-09-16T08:50:45;98052.97;;;13.24;100.00
141;BME280;65;48.778;9.160;2022-09-16T08:56:20;98059.34;;;13.22;100.00
141;BME280;65;48.778;9.160;2022-09-16T08:58:49;98058.88;;;13.28;100.00
141;BME280;65;48.778;9.160;2022-09-16T09:03:54;98051.09;;;13.14;100.00
141;BME280;65;48.778;9.160;2022-09-16T09:06:56;98048.63;;;13.23;100.00
141;BME280;65;48.778;9.160;2022-09-16T09:09:53;98048.28;;;13.28;100.00
141;BME280;65;48.778;9.160;2022-09-16T09:18:17;98047.25;;;13.86;94.59
141;BME280;65;48.778;9.160;2022-09-16T09:23:49;98049.06;;;13.86;95.59
141;BME280;65;48.778;9.160;2022-09-16T09:37:10;98038.94;;;13.69;97.51
141;BME280;65;48.778;9.160;2022-09-16T09:43:01;98032.66;;;14.03;92.00
141;BME280;65;48.778;9.160;2022-09-16T09:45:35;98044.03;;;14.05;96.81
141;BME280;65;48.778;9.160;2022-09-16T09:51:10;98042.53;;;14.23;95.55
141;BME280;65;48.778;9.160;2022-09-16T09:53:45;98026.81;;;14.43;89.99
141;BME280;65;48.778;9.160;2022-09-16T09:56:24;98028.00;;;14.39;91.28
141;BME280;65;48.778;9.160;2022-09-16T10:01:38;98045.94;;;14.14;97.20
141;BME280;65;48.778;9.160;2022-09-16T10:04:11;98044.63;;;14.09;97.53
141;BME280;65;48.778;9.160;2022-09-16T10:06:38;98049.22;;;14.07;98.02
141;BME280;65;48.778;9.160;2022-09-16T10:09:04;98041.84;;;14.10;94.96
141;BME280;65;48.778;9.160;2022-09-16T10:11:52;98045.34;;;14.00;98.07
141;BME280;65;48.778;9.160;2022-09-16T10:14:35;98049.81;;;14.10;97.79
141;BME280;65;48.778;9.160;2022-09-16T10:17:15;98045.31;;;14.22;93.40
141;BME280;65;48.778;9.160;2022-09-16T10:22:25;98047.78;;;14.03;90.76
141;BME280;65;48.778;9.160;2022-09-16T10:25:21;98045.34;;;13.77;93.47
141;BME280;65;48.778;9.160;2022-09-16T10:28:18;98040.13;;;13.65;97.57
141;BME280;65;48.778;9.160;2022-09-16T10:30:47;98038.09;;;13.57;98.45
141;BME280;65;48.778;9.160;2022-09-16T10:35:54;98027.84;;;13.97;97.14
141;BME280;65;48.778;9.160;2022-09-16T10:38:24;98030.00;;;14.03;94.96
141;BME280;65;48.778;9.160;2022-09-16T10:40:51;98030.72;;;14.05;96.53
141;BME280;65;48.778;9.160;2022-09-16T10:43:18;98031.66;;;14.27;92.51
141;BME280;65;48.778;9.160;2022-09-16T10:45:49;98029.88;;;14.16;95.01
141;BME280;65;48.778;9.160;2022-09-16T10:48:23;98033.94;;;14.31;94.69
141;BME280;65;48.778;9.160;2022-09-16T10:50:57;98034.31;;;14.49;90.69
141;BME280;65;48.778;9.160;2022-09-16T10:53:29;98036.50;;;14.44;91.39
141;BME280;65;48.778;9.160;2022-09-16T10:56:33;98048.56;;;14.37;88.80
141;BME280;65;48.778;9.160;2022-09-16T10:59:09;98040.22;;;14.41;91.59
141;BME280;65;48.778;9.160;2022-09-16T11:02:12;98047.34;;;14.41;91.71
141;BME280;65;48.778;9.160;2022-09-16T11:07:36;98042.78;;;14.54;91.33
141;BME280;65;48.778;9.160;2022-09-16T11:13:19;98048.34;;;14.51;88.78
141;BME280;65;48.778;9.160;2022-09-16T11:19:19;98060.94;;;14.81;87.03
141;BME280;65;48.778;9.160;2022-09-16T11:24:46;98058.69;;;14.65;87.89
141;BME280;65;48.778;9.160;2022-09-16T11:29:48;98064.19;;;14.52;86.14
141;BME280;65;48.778;9.160;2022-09-16T11:35:29;98070.84;;;14.47;86.91
141;BME280;65;48.778;9.160;2022-09-16T11:38:15;98059.69;;;14.53;87.28
141;BME280;65;48.778;9.160;2022-09-16T11:40:46;98056.06;;;14.54;82.70
141;BME280;65;48.778;9.160;2022-09-16T11:46:04;98060.50;;;15.08;84.16
141;BME280;65;48.778;9.160;2022-09-16T11:56:47;98047.63;;;15.55;75.75
141;BME280;65;48.778;9.160;2022-09-16T12:01:47;98041.19;;;16.08;74.78
141;BME280;65;48.778;9.160;2022-09-16T12:09:50;98033.97;;;16.89;67.91
141;BME280;65;48.778;9.160;2022-09-16T12:12:23;98034.66;;;17.11;65.25
141;BME280;65;48.778;9.160;2022-09-16T12:14:54;98026.81;;;16.90;67.11
141;BME280;65;48.778;9.160;2022-09-16T12:17:25;98019.91;;;16.87;62.66
141;BME280;65;48.778;9.160;2022-09-16T12:25:18;98018.34;;;16.75;65.51
141;BME280;65;48.778;9.160;2022-09-16T12:27:50;98021.84;;;16.75;63.07
141;BME280;65;48.778;9.160;2022-09-16T12:30:22;98019.84;;;16.58;64.19
141;BME280;65;48.778;9.160;2022-09-16T12:36:05;98023.63;;;16.46;63.91
141;BME280;65;48.778;9.160;2022-09-16T12:38:31;98026.09;;;16.19;62.18
141;BME280;65;48.778;9.160;2022-09-16T12:46:53;98025.47;;;16.05;62.09
141;BME280;65;48.778;9.160;2022-09-16T12:52:17;98017.69;;;16.23;64.61
141;BME280;65;48.778;9.160;2022-09-16T13:00:35;98016.16;;;16.40;64.86
141;BME280;65;48.778;9.160;2022-09-16T13:03:11;98020.81;;;16.48;62.54
141;BME280;65;48.778;9.160;2022-09-16T13:05:47;98011.81;;;16.39;62.61
141;BME280;65;48.778;9.160;2022-09-16T13:08:29;98010.69;;;16.41;62.63
141;BME280;65;48.778;9.160;2022-09-16T13:15:58;97993.50;;;16.94;64.01
141;BME280;65;48.778;9.160;2022-09-16T13:21:42;97981.25;;;16.72;64.16
141;BME280;65;48.778;9.160;2022-09-16T13:24:32;97979.47;;;16.82;59.72
141;BME280;65;48.778;9.160;2022-09-16T13:27:00;97984.81;;;16.82;61.76
141;BME280;65;48.778;9.160;2022-09-16T13:29:41;97975.38;;;16.78;62.13
141;BME280;65;48.778;9.160;2022-09-16T13:32:25;97975.94;;;16.91;59.09
141;BME280;65;48.778;9.160;2022-09-16T13:37:46;97973.06;;;17.31;58.52
141;BME280;65;48.778;9.160;2022-09-16T13:40:28;97977.97;;;17.92;57.11
141;BME280;65;48.778;9.160;2022-09-16T13:44:26;97977.44;;;18.34;57.17
141;BME280;65;48.778;9.160;2022-09-16T13:46:42;97969.34;;;18.26;55.91
141;BME280;65;48.778;9.160;2022-09-16T13:49:20;97973.16;;;17.96;57.34
141;BME280;65;48.778;9.160;2022-09-16T13:51:49;97975.31;;;17.92;58.48
141;BME280;65;48.778;9.160;2022-09-16T13:54:31;97977.97;;;17.92;54.46
141;BME280;65;48.778;9.160;2022-09-16T13:57:20;97972.00;;;17.61;56.85
141;BME280;65;48.778;9.160;2022-09-16T14:11:20;97963.16;;;16.85;58.71
141;BME280;65;48.778;9.160;2022-09-16T14:13:49;97967.63;;;17.04;60.63
141;BME280;65;48.778;9.160;2022-09-16T14:16:21;97965.84;;;17.98;57.50
141;BME280;65;48.778;9.160;2022-09-16T14:21:38;97951.50;;;18.80;55.44
141;BME280;65;48.778;9.160;2022-09-16T14:24:22;97949.94;;;18.95;51.80
141;BME280;65;48.778;9.160;2022-09-16T14:26:52;97942.56;;;18.71;56.29
141;BME280;65;48.778;9.160;2022-09-16T14:29:18;97936.88;;;19.10;54.38
141;BME280;65;48.778;9.160;2022-09-16T14:31:44;97941.78;;;20.08;49.98
141;BME280;65;48.778;9.160;2022-09-16T14:34:13;97953.50;;;20.49;47.54
141;BME280;65;48.778;9.160;2022-09-16T14:36:41;97948.19;;;20.82;46.71
141;BME280;65;48.778;9.160;2022-09-16T14:39:10;97953.69;;;19.72;48.16
141;BME280;65;48.778;9.160;2022-09-16T14:41:43;97950.00;;;20.15;49.79
141;BME280;65;48.778;9.160;2022-09-16T14:44:25;97951.22;;;19.78;49.17
141;BME280;65;48.778;9.160;2022-09-16T14:46:55;97955.00;;;20.02;48.04
141;BME280;65;48.778;9.160;2022-09-16T14:49:22;97951.59;;;19.92;47.10
141;BME280;65;48.778;9.160;2022-09-16T14:55:30;97944.44;;;17.98;52.60
141;BME280;65;48.778;9.160;2022-09-16T14:58:00;97950.47;;;17.73;54.04
141;BME280;65;48.778;9.160;2022-09-16T15:03:29;97935.94;;;17.28;54.67
141;BME280;65;48.778;9.160;2022-09-16T15:06:02;97954.28;;;17.04;56.80
141;BME280;65;48.778;9.160;2022-09-16T15:08:42;97954.22;;;17.43;56.14
141;BME280;65;48.778;9.160;2022-09-16T15:11:22;97940.63;;;17.63;54.52
141;BME280;65;48.778;9.160;2022-09-16T15:13:51;97947.25;;;17.69;56.03
141;BME280;65;48.778;9.160;2022-09-16T15:16:20;97940.31;;;17.76;55.95
141;BME280;65;48.778;9.160;2022-09-16T15:19:03;97941.34;;;17.56;54.07
141;BME280;65;48.778;9.160;2022-09-16T15:21:32;97936.97;;;17.18;57.42
141;BME280;65;48.778;9.160;2022-09-16T15:24:01;97943.72;;;17.12;57.74
141;BME280;65;48.778;9.160;2022-09-16T15:26:37;97947.56;;;16.90;58.30
141;BME280;65;48.778;9.160;2022-09-16T15:29:10;97949.78;;;16.75;58.69
141;BME280;65;48.778;9.160;2022-09-16T15:31:40;97942.19;;;16.61;58.89
141;BME280;65;48.778;9.160;2022-09-16T15:36:44;97946.97;;;16.48;61.85
141;BME280;65;48.778;9.160;2022-09-16T15:44:57;97943.72;;;16.64;58.94
141;BME280;65;48.778;9.160;2022-09-16T15:47:29;97939.53;;;16.71;59.91
141;BME280;65;48.778;9.160;2022-09-16T15:55:25;97932.50;;;16.51;58.54
141;BME280;65;48.778;9.160;2022-09-16T15:57:58;97936.28;;;16.48;60.21
141;BME280;65;48.778;9.160;2022-09-16T16:03:58;97937.13;;;16.58;59.42
141;BME280;65;48.778;9.160;2022-09-16T16:06:49;97934.03;;;16.53;60.09
141;BME280;65;48.778;9.160;2022-09-16T16:09:41;97939.97;;;16.76;60.16
141;BME280;65;48.778;9.160;2022-09-16T16:12:28;97941.66;;;16.87;60.96
141;BME280;65;48.778;9.160;2022-09-16T16:15:15;97950.06;;;17.01;60.38
141;BME280;65;48.778;9.160;2022-09-16T16:18:05;97946.13;;;16.57;59.73
141;BME280;65;48.778;9.160;2022-09-16T16:20:51;97950.47;;;16.29;62.88
141;BME280;65;48.778;9.160;2022-09-16T16:23:37;97953.34;;;16.17;66.16
141;BME280;65;48.778;9.160;2022-09-16T16:26:23;97952.13;;;16.21;64.66
141;BME280;65;48.778;9.160;2022-09-16T16:29:09;97947.38;;;16.34;60.36
141;BME280;65;48.778;9.160;2022-09-16T16:32:07;97954.53;;;16.33;59.85
141;BME280;65;48.778;9.160;2022-09-16T16:34:54;97949.19;;;16.24;59.40
141;BME280;65;48.778;9.160;2022-09-16T16:37:42;97954.97;;;16.38;59.39
141;BME280;65;48.778;9.160;2022-09-16T16:40:28;97949.22;;;16.62;56.97
141;BME280;65;48.778;9.160;2022-09-16T16:43:14;97942.47;;;16.29;57.58
141;BME280;65;48.778;9.160;2022-09-16T16:46:00;97944.09;;;16.11;56.52
141;BME280;65;48.778;9.160;2022-09-16T16:48:46;97941.47;;;15.71;59.47
141;BME280;65;48.778;9.160;2022-09-16T16:51:32;97952.78;;;15.42;60.86
141;BME280;65;48.778;9.160;2022-09-16T16:54:18;97956.06;;;15.25;61.14
141;BME280;65;48.778;9.160;2022-09-16T16:57:04;97957.91;;;15.04;62.32
141;BME280;65;48.778;9.160;2022-09-16T16:59:49;97965.22;;;14.91;63.09
141;BME280;65;48.778;9.160;2022-09-16T17:02:36;97973.91;;;14.93;63.27
141;BME280;65;48.778;9.160;2022-09-16T17:05:22;97976.59;;;14.93;63.17
141;BME280;65;48.778;9.160;2022-09-16T17:08:07;97970.09;;;14.85;62.42
141;BME280;65;48.778;9.160;2022-09-16T17:13:57;97971.19;;;14.83;64.52
141;BME280;65;48.778;9.160;2022-09-16T17:16:46;97990.72;;;14.72;67.84
141;BME280;65;48.778;9.160;2022-09-16T17:19:33;97996.75;;;14.74;66.17
141;BME280;65;48.778;9.160;2022-09-16T17:22:18;98020.34;;;14.68;66.95
141;BME280;65;48.778;9.160;2022-09-16T17:25:04;98029.34;;;14.55;68.73
141;BME280;65;48.778;9.160;2022-09-16T17:27:50;98025.25;;;14.29;74.45
141;BME280;65;48.778;9.160;2022-09-16T17:30:36;98031.81;;;14.03;75.71
141;BME280;65;48.778;9.160;2022-09-16T17:33:22;98033.75;;;13.67;77.17
141;BME280;65;48.778;9.160;2022-09-16T17:36:09;98037.00;;;13.48;79.93
141;BME280;65;48.778;9.160;2022-09-16T17:38:57;98033.84;;;13.32;80.18
141;BME280;65;48.778;9.160;2022-09-16T17:41:44;98037.88;;;13.25;82.19
141;BME280;65;48.778;9.160;2022-09-16T17:44:30;98041.91;;;13.07;84.77
141;BME280;65;48.778;9.160;2022-09-16T17:47:16;98045.88;;;13.01;86.73
141;BME280;65;48.778;9.160;2022-09-16T17:50:02;98070.78;;;12.87;86.55
141;BME280;65;48.778;9.160;2022-09-16T17:52:49;98061.81;;;12.77;92.15
141;BME280;65;48.778;9.160;2022-09-16T17:55:35;98060.91;;;12.42;92.04
141;BME280;65;48.778;9.160;2022-09-16T17:58:23;98067.88;;;12.06;100.00